METAR Data
IDs: Format: Raw Decoded Include TAF

Data at: 1105 UTC 22 Jan 2022

KS32 221055Z AUTO 31009G14KT 10SM FEW022 SCT037 BKN043 M20/M22 A3021 RMK AO2 TSNO
KS32 221035Z AUTO 32011KT 10SM FEW041 SCT048 M19/M21 A3020 RMK AO2 TSNO
KS32 221015Z AUTO 33012KT 10SM FEW030 SCT038 SCT046 M18/M21 A3019 RMK AO2 TSNO
KS32 220955Z AUTO 32013KT 10SM FEW025 SCT035 BKN042 M18/M20 A3020 RMK AO2 TSNO
KS32 220935Z AUTO 32015KT 10SM BKN022 BKN032 BKN040 M18/M20 A3020 RMK AO2 TSNO
KS32 220915Z AUTO 32017G25KT 10SM OVC021 M17/M19 A3020 RMK AO2 TSNO
KS32 220855Z AUTO 32018G24KT 10SM OVC023 M17/M19 A3019 RMK AO2 TSNO
KS32 220835Z AUTO 32022KT 10SM OVC023 M16/M18 A3019 RMK AO2 TSNO
KS32 220815Z AUTO 31016KT 10SM OVC024 M16/M18 A3018 RMK AO2 TSNO
KS32 220755Z AUTO 32019G25KT 10SM OVC025 M16/M18 A3017 RMK AO2 TSNO
KS32 220735Z AUTO 32020G26KT 10SM OVC026 M15/M17 A3016 RMK AO2 TSNO
KS32 220715Z AUTO 32016G22KT 10SM OVC025 M15/M16 A3015 RMK AO2 TSNO
KS32 220655Z AUTO 32018G26KT 10SM OVC025 M14/M16 A3014 RMK AO2 TSNO
KS32 220635Z AUTO 32017G27KT 10SM OVC027 M14/M16 A3013 RMK AO2 TSNO
KS32 220615Z AUTO 32022G27KT 10SM OVC027 M14/M16 A3012 RMK AO2 TSNO
KS32 220555Z AUTO 31025KT 10SM OVC027 M14/M16 A3011 RMK AO2 TSNO
KS32 220535Z AUTO 32020G28KT 10SM OVC028 M14/M15 A3010 RMK AO2 TSNO
KS32 220515Z AUTO 32021G27KT 10SM OVC028 M14/M15 A3009 RMK AO2 TSNO
KS32 220455Z AUTO 32021G28KT 10SM BKN026 BKN035 BKN047 M13/M15 A3008 RMK AO2 TSNO
KS32 220435Z AUTO 33027KT 10SM BKN024 M13/M14 A3006 RMK AO2 TSNO
KS32 220415Z AUTO 33029G35KT 8SM SCT009 SCT014 OVC025 M12/M14 A3004 RMK AO2 TSNO
KS32 220355Z AUTO 34026G33KT 2 1/2SM -SN BKN009 BKN014 OVC023 M11/M11 A3003 RMK AO2 VIS 1 1/2V4 TSNO
KS32 220335Z AUTO 32020G26KT 10SM FEW015 BKN023 OVC030 M09/M10 A3001 RMK AO2 TSNO
KS32 220315Z AUTO 32026G32KT 7SM FEW018 OVC029 M09/M09 A2999 RMK AO2 TSNO
KS32 220255Z AUTO 32028G36KT 8SM FEW019 OVC027 M08/M08 A2999 RMK AO2 TSNO
KS32 220235Z AUTO 32025G35KT 10SM OVC027 M08/M08 A2999 RMK AO2 TSNO
KS32 220215Z AUTO 31022G33KT 10SM M07/M07 A2997 RMK AO2 TSNO
KS32 212355Z AUTO 30034KT 2SM BR OVC022 M04/M04 A2988 RMK AO2 TSNO
KS32 212335Z AUTO 30033KT 3/4SM BR OVC019 M03/M03 A2987 RMK AO2 TSNO
KS32 212315Z AUTO 30032G41KT 1/2SM FZFG SCT029 BKN037 OVC048 M03/M03 A2986 RMK AO2 TSNO
KS32 212255Z AUTO 29022G31KT 3SM BR SCT036 OVC050 M02/M01 A2985 RMK AO2 TSNO
KS32 212235Z AUTO 30029G37KT 3/4SM BR OVC035 M01/M01 A2984 RMK AO2 TSNO
KS32 212215Z AUTO 31032G42KT 1/4SM DZ BKN026 OVC055 M01/M01 A2982 RMK AO2 TSNO
KS32 212155Z AUTO 29023KT 10SM FEW022 SCT029 BKN050 01/01 A2980 RMK AO2 TSNO
KS32 212135Z AUTO 28021G26KT 3SM -SN FEW021 BKN028 OVC060 01/01 A2979 RMK AO2 TSNO
KS32 212115Z AUTO 28016KT 10SM -UP FEW024 SCT032 BKN039 02/02 A2978 RMK AO2 TSNO
KS32 212055Z AUTO 28018KT 10SM FEW026 BKN032 OVC050 02/02 A2978 RMK AO2 TSNO
KS32 212035Z AUTO 29020KT 10SM FEW026 FEW034 OVC050 02/02 A2977 RMK AO2 TSNO
KS32 212015Z AUTO 29017G24KT 10SM SCT021 BKN029 OVC055 02/02 A2976 RMK AO2 TSNO
KS32 211955Z AUTO 29017G24KT 10SM BKN021 BKN030 OVC055 02/02 A2976 RMK AO2 TSNO
KS32 211935Z AUTO 29014G19KT 10SM OVC055 02/02 A2975 RMK AO2 TSNO
KS32 211915Z AUTO 28017KT 10SM OVC050 00/00 A2975 RMK AO2 TSNO
KS32 211855Z AUTO 23014KT 10SM FEW008 SCT040 OVC050 M04/M04 A2975 RMK AO2 TSNO
KS32 211835Z AUTO 22015KT 3SM BR SCT008 BKN019 OVC039 M05/M04 A2975 RMK AO2 TSNO
KS32 211815Z AUTO 22017KT 4SM BR SCT013 BKN019 OVC030 M06/M06 A2975 RMK AO2 TSNO
KS32 211755Z AUTO 22018KT 9SM OVC011 M06/M06 A2975 RMK AO2 TSNO
KS32 211735Z AUTO 21015KT 6SM BR OVC009 M08/M08 A2976 RMK AO2 TSNO
KS32 211715Z AUTO 21018G24KT 1 1/4SM BR OVC009 M08/M08 A2976 RMK AO2 TSNO
KS32 211655Z AUTO 21020KT 2SM BR OVC008 M09/M09 A2976 RMK AO2 TSNO
KS32 211635Z AUTO 20020KT 2 1/2SM BR FEW006 OVC010 M10/M10 A2976 RMK AO2 TSNO
KS32 211615Z AUTO 21023G29KT 1 1/4SM BR OVC006 M10/M10 A2975 RMK AO2 TSNO
KS32 211555Z AUTO 20022G29KT 3/4SM BR OVC007 M11/M11 A2975 RMK AO2 TSNO
KS32 211535Z AUTO 20024G30KT 1SM BR OVC007 M11/M11 A2975 RMK AO2 TSNO
KS32 211515Z AUTO 19023G32KT 3/4SM BR OVC008 M11/M11 A2976 RMK AO2 TSNO
KS32 211455Z AUTO 20024G30KT 1/2SM FZFG BKN004 BKN010 OVC018 M12/M12 A2977 RMK AO2 TSNO
KS32 211435Z AUTO 19025G32KT 1/4SM -SN BKN004 OVC016 M12/M12 A2977 RMK AO2 TSNO
KS32 211415Z AUTO 19029G35KT 1/2SM -SN OVC016 M12/M12 A2977 RMK AO2 TSNO
KS32 211355Z AUTO 19029G35KT 2SM BR SCT018 BKN040 OVC060 M12/M13 A2977 RMK AO2 TSNO
KS32 211335Z AUTO 19027G34KT 2SM BR BKN060 OVC070 M12/M13 A2978 RMK AO2 TSNO
KS32 211315Z AUTO 19029G36KT 2 1/2SM BR SCT060 OVC070 M12/M13 A2978 RMK AO2 TSNO
KS32 211255Z AUTO 19031KT 2SM BR BKN075 BKN085 OVC100 M13/M13 A2979 RMK AO2 TSNO
KS32 211235Z AUTO 19029G34KT 2 1/2SM BR FEW075 SCT085 OVC110 M13/M14 A2980 RMK AO2 TSNO
KS32 211215Z AUTO 18028G38KT 8SM BKN120 M13/M15 A2980 RMK AO2 TSNO
KS32 211155Z AUTO 18030G35KT 3SM BR SCT110 M13/M15 A2982 RMK AO2 TSNO
KS32 211135Z AUTO 19031G38KT 4SM BR FEW110 M13/M15 A2984 RMK AO2 TSNO
KS32 211115Z AUTO 18031G37KT 10SM FEW100 FEW120 M13/M16 A2983 RMK AO2 TSNO
KS32 211055Z AUTO 17029G37KT 10SM SCT120 M14/M17 A2985 RMK AO2 TSNO
KS32 211035Z AUTO 17024KT 10SM SCT120 M14/M17 A2989 RMK AO2 TSNO
KS32 211015Z AUTO 17022G28KT 10SM CLR M15/M18 A2991 RMK AO2 TSNO
KS32 210955Z AUTO 17018KT 10SM CLR M16/M19 A2993 RMK AO2 TSNO
KS32 210935Z AUTO 16017KT 10SM CLR M17/M20 A2994 RMK AO2 TSNO
KS32 210915Z AUTO 17019G24KT 10SM CLR M17/M20 A2996 RMK AO2 TSNO
KS32 210855Z AUTO 16018G23KT 10SM CLR M18/M21 A2997 RMK AO2 TSNO
KS32 210835Z AUTO 17017G23KT 10SM CLR M18/M21 A2999 RMK AO2 TSNO
KS32 210815Z AUTO 17019KT 10SM CLR M18/M21 A3000 RMK AO2 TSNO
KS32 210755Z AUTO 17016KT 10SM CLR M18/M21 A3002 RMK AO2 TSNO
KS32 210735Z AUTO 17018KT 10SM CLR M18/M21 A3003 RMK AO2 TSNO
KS32 210715Z AUTO 17019KT 10SM CLR M18/M21 A3004 RMK AO2 TSNO
KS32 210655Z AUTO 17018G23KT 10SM CLR M17/M21 A3005 RMK AO2 TSNO
KS32 210635Z AUTO 17018G24KT 10SM CLR M17/M21 A3007 RMK AO2 TSNO
KS32 210615Z AUTO 17020KT 10SM CLR M17/M21 A3008 RMK AO2 TSNO
KS32 210555Z AUTO 17020KT 10SM CLR M17/M21 A3010 RMK AO2 TSNO
KS32 210535Z AUTO 17020KT 10SM CLR M18/M21 A3010 RMK AO2 TSNO
KS32 210515Z AUTO 17020KT 10SM CLR M18/M21 A3011 RMK AO2 TSNO
KS32 210455Z AUTO 17018KT 10SM CLR M19/M22 A3014 RMK AO2 TSNO
KS32 210415Z AUTO 16015KT 10SM CLR M21/M23 A3016 RMK AO2 TSNO
KS32 210355Z AUTO 16014KT 10SM FEW047 M21/M23 A3018 RMK AO2 TSNO
KS32 210155Z AUTO 16016KT 10SM CLR M21/M22 A3025 RMK AO2 TSNO
KS32 210135Z AUTO 16015KT 10SM CLR M21/M22 A3026 RMK AO2 TSNO
KS32 210115Z AUTO 16015KT 10SM CLR M21/M23 A3027 RMK AO2 TSNO
KS32 210055Z AUTO 16017KT 10SM CLR M21/M23 A3028 RMK AO2 TSNO
KS32 210035Z AUTO 16015KT 10SM CLR M21/M23 A3029 RMK AO2 TSNO
KS32 210015Z AUTO 17015KT 10SM CLR M20/M22 A3031 RMK AO2 TSNO
KS32 202355Z AUTO 16015KT 10SM CLR M20/M22 A3032 RMK AO2 TSNO
KS32 202335Z AUTO 17013KT 10SM CLR M20/M23 A3033 RMK AO2 TSNO
KS32 202315Z AUTO 17013KT 10SM CLR M19/M22 A3035 RMK AO2 TSNO